Time;durP1;ratioP1;P1;durP2;ratioP2;P2;SDS_P1;SDS_P2;PMS_P1;PMS_P2;Temp;Humidity;BMP_temperature;BMP_pressure;BME280_temperature;BME280_humidity;BME280_pressure;Samples;Min_cycle;Max_cycle;Signal;HPM_P1;HPM_P2
2021/04/02 00:00:17;;;;;;;6.20;5.13;;;5.30;99.90;;;;;;4978349;28;20222;-54
2021/04/02 00:02:44;;;;;;;6.17;5.57;;;5.20;99.90;;;;;;4982731;28;20292;-54
2021/04/02 00:05:13;;;;;;;5.57;5.00;;;5.20;99.90;;;;;;4979147;28;20205;-58
2021/04/02 00:07:40;;;;;;;6.33;5.10;;;5.20;99.90;;;;;;4968273;28;20307;-50
2021/04/02 00:10:08;;;;;;;6.03;5.23;;;5.10;99.90;;;;;;4981133;28;20761;-53
2021/04/02 00:12:34;;;;;;;10.40;6.97;;;5.10;99.90;;;;;;4985298;28;20255;-54
2021/04/02 00:15:01;;;;;;;24.50;9.67;;;5.10;99.90;;;;;;4985150;28;20228;-56
2021/04/02 00:17:27;;;;;;;11.57;8.27;;;5.00;99.90;;;;;;4984060;28;20300;-58
2021/04/02 00:19:56;;;;;;;42.40;10.00;;;5.00;99.90;;;;;;4983432;28;20220;-52
2021/04/02 00:22:22;;;;;;;106.30;12.40;;;4.90;99.90;;;;;;4965487;28;21458;-50
2021/04/02 00:24:48;;;;;;;65.23;11.57;;;4.90;99.90;;;;;;4983277;28;20232;-53
2021/04/02 00:27:14;;;;;;;134.60;14.37;;;4.90;99.90;;;;;;4979505;28;20888;-53
2021/04/02 00:29:40;;;;;;;87.57;13.07;;;4.80;99.90;;;;;;4986694;28;20244;-52
2021/04/02 00:32:07;;;;;;;70.87;13.73;;;4.80;99.90;;;;;;4984531;28;20280;-56
2021/04/02 00:34:33;;;;;;;70.00;13.10;;;4.80;99.90;;;;;;4985768;28;20694;-53
2021/04/02 00:37:00;;;;;;;20.43;12.07;;;4.80;99.90;;;;;;4980297;28;20193;-56
2021/04/02 00:39:27;;;;;;;33.23;13.40;;;4.80;99.90;;;;;;4976044;28;20824;-49
2021/04/02 00:41:54;;;;;;;22.27;12.77;;;4.80;99.90;;;;;;4986938;28;20205;-50
2021/04/02 00:44:20;;;;;;;32.63;12.67;;;4.80;99.90;;;;;;4998276;28;20232;-52
2021/04/02 00:46:47;;;;;;;19.27;11.60;;;4.90;99.90;;;;;;4986981;28;20275;-53
2021/04/02 00:49:13;;;;;;;21.63;11.50;;;4.90;99.90;;;;;;4981985;28;20237;-58
2021/04/02 00:51:39;;;;;;;19.67;12.50;;;4.90;99.90;;;;;;4987820;28;20231;-55
2021/04/02 00:54:07;;;;;;;19.17;11.47;;;4.90;99.90;;;;;;4971794;28;20226;-55
2021/04/02 00:56:34;;;;;;;35.53;12.67;;;4.90;99.90;;;;;;4987870;28;20224;-54
2021/04/02 00:59:00;;;;;;;25.57;12.17;;;4.90;99.90;;;;;;4986377;28;20919;-58
2021/04/02 01:01:27;;;;;;;39.40;12.93;;;4.90;99.90;;;;;;4976233;28;20688;-51
2021/04/02 01:03:54;;;;;;;25.77;12.87;;;4.90;99.90;;;;;;4981142;28;20201;-50
2021/04/02 01:06:26;;;;;;;26.53;11.63;;;4.90;99.90;;;;;;5000665;28;20201;-56
2021/04/02 01:08:55;;;;;;;20.50;12.40;;;4.80;99.90;;;;;;4967210;28;20232;-51
2021/04/02 01:11:26;;;;;;;24.93;12.60;;;4.90;99.90;;;;;;4985792;28;20678;-49
2021/04/02 01:13:56;;;;;;;18.63;10.80;;;4.90;99.90;;;;;;4980361;28;20905;-52
2021/04/02 01:16:25;;;;;;;86.93;13.43;;;4.90;99.90;;;;;;5000109;28;20978;-54
2021/04/02 01:18:55;;;;;;;50.93;12.40;;;4.90;99.90;;;;;;4997398;28;20229;-54
2021/04/02 01:21:25;;;;;;;140.87;14.57;;;4.90;99.90;;;;;;4988115;28;20753;-57
2021/04/02 01:24:08;;;;;;;36.47;11.67;;;4.80;99.90;;;;;;4985371;28;20243;-57
2021/04/02 01:27:03;;;;;;;112.47;14.13;;;4.90;99.90;;;;;;4972175;28;20344;-56
2021/04/02 01:29:35;;;;;;;509.40;27.87;;;4.80;99.90;;;;;;4985078;28;20221;-57
2021/04/02 01:32:03;;;;;;;325.73;20.13;;;4.70;99.90;;;;;;4983795;28;20198;-53
2021/04/02 01:34:33;;;;;;;279.40;18.80;;;4.60;99.90;;;;;;4984744;28;20677;-53
2021/04/02 01:37:04;;;;;;;171.17;16.70;;;4.50;99.90;;;;;;4979884;28;20263;-54
2021/04/02 01:39:33;;;;;;;234.73;17.60;;;4.50;99.90;;;;;;4984546;28;20702;-53
2021/04/02 01:42:00;;;;;;;232.73;19.10;;;4.50;99.90;;;;;;4967849;28;20201;-53
2021/04/02 01:44:32;;;;;;;269.40;18.40;;;4.50;99.90;;;;;;4984025;28;20663;-51
2021/04/02 01:46:58;;;;;;;186.10;14.30;;;4.40;99.90;;;;;;4982289;28;20213;-50
2021/04/02 01:49:26;;;;;;;212.37;18.30;;;4.40;99.90;;;;;;5000403;28;20233;-49
2021/04/02 01:51:54;;;;;;;180.77;14.30;;;4.40;99.90;;;;;;4981766;28;20299;-50
2021/04/02 01:54:22;;;;;;;158.03;14.13;;;4.40;99.90;;;;;;4985492;28;20224;-51
2021/04/02 01:56:50;;;;;;;284.67;20.23;;;4.40;99.90;;;;;;4984600;28;20208;-56
2021/04/02 01:59:18;;;;;;;66.27;12.00;;;4.40;99.90;;;;;;4995886;28;20308;-51
2021/04/02 02:01:49;;;;;;;56.80;14.13;;;4.40;99.90;;;;;;4981627;28;20252;-56
2021/04/02 02:04:22;;;;;;;183.83;20.03;;;4.50;99.90;;;;;;4984178;28;20213;-50
2021/04/02 02:06:53;;;;;;;197.80;16.40;;;4.40;99.90;;;;;;4980044;28;20208;-56
2021/04/02 02:09:27;;;;;;;110.00;14.63;;;4.40;99.90;;;;;;4984198;28;20304;-52
2021/04/02 02:11:59;;;;;;;96.70;11.90;;;4.40;99.90;;;;;;4996207;28;20270;-51
2021/04/02 02:14:37;;;;;;;142.27;14.00;;;4.30;99.90;;;;;;4969173;28;20224;-58
2021/04/02 02:17:16;;;;;;;129.30;11.37;;;4.20;99.90;;;;;;4983887;28;20209;-57
2021/04/02 02:19:43;;;;;;;74.43;11.53;;;4.10;99.90;;;;;;4984622;28;20693;-53
2021/04/02 02:22:13;;;;;;;211.70;13.53;;;4.00;99.90;;;;;;5001226;28;20213;-57
2021/04/02 02:24:49;;;;;;;132.40;10.87;;;4.00;99.90;;;;;;4998212;28;20208;-54
2021/04/02 02:27:16;;;;;;;66.67;11.10;;;4.00;99.90;;;;;;4987477;28;20289;-55
2021/04/02 02:29:43;;;;;;;75.67;10.73;;;4.00;99.90;;;;;;4969928;28;20228;-57
2021/04/02 02:32:09;;;;;;;62.07;10.20;;;4.10;99.90;;;;;;4979433;28;20197;-58
2021/04/02 02:34:40;;;;;;;86.63;10.30;;;4.10;99.90;;;;;;4984525;28;20657;-56
2021/04/02 02:37:08;;;;;;;80.43;10.90;;;4.00;99.90;;;;;;4984107;28;20377;-57
2021/04/02 02:39:41;;;;;;;45.17;8.63;;;4.10;99.90;;;;;;4980669;28;20756;-57
2021/04/02 02:42:09;;;;;;;58.97;9.10;;;4.10;99.90;;;;;;4976950;28;20896;-53
2021/04/02 02:44:36;;;;;;;66.33;9.40;;;4.10;99.90;;;;;;4969078;28;20297;-57
2021/04/02 02:47:05;;;;;;;36.70;8.07;;;4.10;99.90;;;;;;4981474;28;20190;-52
2021/04/02 02:49:33;;;;;;;91.00;9.53;;;4.10;99.90;;;;;;4982802;28;20248;-58
2021/04/02 02:52:01;;;;;;;64.50;9.83;;;4.10;99.90;;;;;;4995949;28;20321;-55
2021/04/02 02:54:34;;;;;;;19.17;8.33;;;4.10;99.90;;;;;;4984469;28;20275;-53
2021/04/02 02:57:02;;;;;;;44.30;10.10;;;4.20;99.90;;;;;;4992506;28;20220;-49
2021/04/02 02:59:31;;;;;;;72.43;9.23;;;4.20;99.90;;;;;;4968295;28;20245;-50
2021/04/02 03:02:00;;;;;;;73.70;9.30;;;4.20;99.90;;;;;;4977425;28;20219;-55
2021/04/02 03:04:28;;;;;;;102.17;8.97;;;4.10;99.90;;;;;;5001671;28;20296;-56
2021/04/02 03:06:57;;;;;;;114.10;10.07;;;4.10;99.90;;;;;;4982616;28;20251;-56
2021/04/02 03:09:27;;;;;;;123.90;9.53;;;4.10;99.90;;;;;;4984613;28;20759;-55
2021/04/02 03:11:54;;;;;;;120.63;9.90;;;4.00;99.90;;;;;;4982326;28;20464;-57
2021/04/02 03:14:24;;;;;;;119.13;9.63;;;4.00;99.90;;;;;;4969484;28;20626;-52
2021/04/02 03:16:54;;;;;;;56.43;6.97;;;3.90;99.90;;;;;;4979823;28;21309;-51
2021/04/02 03:19:25;;;;;;;127.83;9.53;;;3.90;99.90;;;;;;4983360;28;20259;-55
2021/04/02 03:22:01;;;;;;;83.03;7.77;;;3.80;99.90;;;;;;4979750;28;20196;-54
2021/04/02 03:24:38;;;;;;;120.57;8.83;;;3.80;99.90;;;;;;4992726;28;20200;-58
2021/04/02 03:27:09;;;;;;;82.00;8.50;;;3.70;99.90;;;;;;4982417;28;20197;-50
2021/04/02 03:29:37;;;;;;;75.50;7.73;;;3.70;99.90;;;;;;4973298;28;20236;-54
2021/04/02 03:32:09;;;;;;;69.67;7.17;;;3.70;99.90;;;;;;4983680;28;20197;-52
2021/04/02 03:34:37;;;;;;;62.13;7.10;;;3.60;99.90;;;;;;4995380;28;20216;-53
2021/04/02 03:37:08;;;;;;;83.33;8.70;;;3.60;99.90;;;;;;4978781;28;20674;-52
2021/04/02 03:39:42;;;;;;;38.63;7.27;;;3.60;99.90;;;;;;4995071;28;20225;-54
2021/04/02 03:42:12;;;;;;;128.87;8.97;;;3.70;99.90;;;;;;4969303;28;20637;-57
2021/04/02 03:44:47;;;;;;;50.17;7.97;;;3.60;99.90;;;;;;4980730;28;20224;-50
2021/04/02 03:47:16;;;;;;;53.30;8.63;;;3.60;99.90;;;;;;4982604;28;20221;-55
2021/04/02 03:49:47;;;;;;;45.03;7.50;;;3.60;99.90;;;;;;4996714;28;20394;-52
2021/04/02 03:52:17;;;;;;;88.87;9.30;;;3.70;99.90;;;;;;4993728;28;20210;-56
2021/04/02 03:54:50;;;;;;;102.17;12.33;;;3.70;99.90;;;;;;4981576;28;20320;-56
2021/04/02 03:57:22;;;;;;;72.10;9.40;;;3.70;99.90;;;;;;4976675;28;20332;-57
2021/04/02 03:59:51;;;;;;;30.83;8.73;;;3.60;99.90;;;;;;4976770;28;22134;-52
2021/04/02 04:02:19;;;;;;;45.70;8.43;;;3.70;99.90;;;;;;4996399;28;20200;-55
2021/04/02 04:04:51;;;;;;;74.90;10.73;;;3.70;99.90;;;;;;5001942;28;20767;-55
2021/04/02 04:07:18;;;;;;;79.87;11.43;;;3.60;99.90;;;;;;4985193;28;20279;-55
2021/04/02 04:09:49;;;;;;;61.30;10.73;;;3.60;99.90;;;;;;4998307;28;20772;-54
2021/04/02 04:12:20;;;;;;;44.60;10.77;;;3.50;99.90;;;;;;4985594;28;20200;-58
2021/04/02 04:14:53;;;;;;;30.83;10.50;;;3.50;99.90;;;;;;4971039;28;20232;-52
2021/04/02 04:17:25;;;;;;;58.43;12.07;;;3.50;99.90;;;;;;4982538;28;20207;-57
2021/04/02 04:19:58;;;;;;;24.93;11.20;;;3.50;99.90;;;;;;5002407;28;20231;-49
2021/04/02 04:22:28;;;;;;;22.13;11.40;;;3.50;99.90;;;;;;4970149;28;20983;-58
2021/04/02 04:24:57;;;;;;;31.77;10.87;;;3.40;99.90;;;;;;4985041;28;20254;-58
2021/04/02 04:27:25;;;;;;;21.40;11.07;;;3.30;99.90;;;;;;4981557;28;20257;-56
2021/04/02 04:29:54;;;;;;;25.10;10.13;;;3.30;99.90;;;;;;4988680;28;20734;-58
2021/04/02 04:32:22;;;;;;;15.20;9.07;;;3.30;99.90;;;;;;4970917;28;20208;-57
2021/04/02 04:34:50;;;;;;;19.00;9.93;;;3.30;99.90;;;;;;4987786;28;20255;-57
2021/04/02 04:37:19;;;;;;;18.30;10.03;;;3.20;99.90;;;;;;4985481;28;20203;-58
2021/04/02 04:39:48;;;;;;;23.90;10.67;;;3.20;99.90;;;;;;4981084;28;20227;-55
2021/04/02 04:42:18;;;;;;;19.43;10.30;;;3.20;99.90;;;;;;4984160;28;20346;-58
2021/04/02 04:44:49;;;;;;;25.57;11.53;;;3.20;99.90;;;;;;4983864;28;20196;-52
2021/04/02 04:47:15;;;;;;;19.17;11.57;;;3.10;99.90;;;;;;4962398;28;20259;-55
2021/04/02 04:49:42;;;;;;;20.40;10.30;;;3.00;99.90;;;;;;4982842;28;20238;-56
2021/04/02 04:52:11;;;;;;;24.93;10.03;;;2.90;99.90;;;;;;4975611;28;20264;-57
2021/04/02 04:54:38;;;;;;;15.07;8.63;;;2.90;99.90;;;;;;4982484;28;20219;-59
2021/04/02 04:57:06;;;;;;;17.70;9.23;;;2.80;99.90;;;;;;4979797;28;20897;-52
2021/04/02 04:59:33;;;;;;;21.00;10.60;;;2.80;99.90;;;;;;4980885;28;20224;-54
2021/04/02 05:02:01;;;;;;;24.70;9.77;;;2.70;99.90;;;;;;4964568;28;20208;-54
2021/04/02 05:04:30;;;;;;;15.77;9.87;;;2.80;99.90;;;;;;4986111;28;20204;-52
2021/04/02 05:07:01;;;;;;;14.17;8.63;;;2.80;99.90;;;;;;4981645;28;20850;-53
2021/04/02 05:09:28;;;;;;;11.17;8.70;;;2.80;99.90;;;;;;4981453;28;20238;-54
2021/04/02 05:11:56;;;;;;;21.17;9.83;;;2.70;99.90;;;;;;4996381;28;20228;-51
2021/04/02 05:14:23;;;;;;;16.80;9.23;;;2.70;99.90;;;;;;4979246;28;20228;-55
2021/04/02 05:16:52;;;;;;;19.63;9.80;;;2.70;99.90;;;;;;4969996;28;20283;-56
2021/04/02 05:19:19;;;;;;;15.90;8.17;;;2.60;99.90;;;;;;4977751;28;20275;-54
2021/04/02 05:21:46;;;;;;;14.27;8.37;;;2.60;99.90;;;;;;4982096;28;20298;-58
2021/04/02 05:24:13;;;;;;;16.80;9.57;;;2.60;99.90;;;;;;4976164;28;20222;-53
2021/04/02 05:26:39;;;;;;;14.90;8.60;;;2.70;99.90;;;;;;4982633;28;20213;-55
2021/04/02 05:29:06;;;;;;;13.23;7.80;;;2.70;99.90;;;;;;4978926;28;20219;-51
2021/04/02 05:31:33;;;;;;;12.83;6.93;;;2.60;99.90;;;;;;4981322;28;20215;-54
2021/04/02 05:34:00;;;;;;;11.43;6.90;;;2.60;99.90;;;;;;4982556;28;20302;-51
2021/04/02 05:36:26;;;;;;;12.57;7.27;;;2.60;99.90;;;;;;4979443;28;20201;-54
2021/04/02 05:38:52;;;;;;;10.23;6.63;;;2.60;99.90;;;;;;4980966;28;20219;-55
2021/04/02 05:41:23;;;;;;;11.67;6.57;;;2.60;99.90;;;;;;4982298;28;20191;-53
2021/04/02 05:43:53;;;;;;;18.07;7.27;;;2.70;99.90;;;;;;4979483;28;20284;-55
2021/04/02 05:46:23;;;;;;;14.67;7.50;;;2.70;99.90;;;;;;4976008;28;20212;-53
2021/04/02 05:49:00;;;;;;;16.23;7.00;;;2.80;99.90;;;;;;4963326;28;20269;-56
2021/04/02 05:51:28;;;;;;;13.53;7.00;;;2.80;99.90;;;;;;4985207;28;20214;-50
2021/04/02 05:53:56;;;;;;;11.23;6.43;;;2.90;99.90;;;;;;4981778;28;20292;-51
2021/04/02 05:56:23;;;;;;;15.03;6.23;;;2.90;99.90;;;;;;4984883;28;20215;-51
2021/04/02 05:58:50;;;;;;;14.57;6.73;;;3.00;99.90;;;;;;4971853;28;20230;-53
2021/04/02 06:01:17;;;;;;;15.47;6.83;;;3.00;99.90;;;;;;4975170;28;20207;-56
2021/04/02 06:03:44;;;;;;;12.00;5.73;;;3.10;99.90;;;;;;4962438;28;20214;-54
2021/04/02 06:06:12;;;;;;;9.00;6.03;;;3.10;99.90;;;;;;4984351;28;20217;-55
2021/04/02 06:08:42;;;;;;;11.30;6.13;;;3.20;99.90;;;;;;4981506;28;21002;-53
2021/04/02 06:11:08;;;;;;;13.07;6.20;;;3.20;99.90;;;;;;4984552;28;20204;-57
2021/04/02 06:13:34;;;;;;;7.07;5.27;;;3.30;99.90;;;;;;4982570;28;20278;-50
2021/04/02 06:16:01;;;;;;;7.17;4.60;;;3.40;99.90;;;;;;4985098;28;20212;-50
2021/04/02 06:18:27;;;;;;;8.43;4.70;;;3.40;99.90;;;;;;4981156;28;20211;-54
2021/04/02 06:20:55;;;;;;;12.57;5.30;;;3.50;99.90;;;;;;4970473;28;20216;-57
2021/04/02 06:23:22;;;;;;;6.47;4.50;;;3.60;99.90;;;;;;4983900;28;20231;-55
2021/04/02 06:25:51;;;;;;;12.50;4.30;;;3.60;99.90;;;;;;4985349;28;20216;-55
2021/04/02 06:28:19;;;;;;;6.60;4.47;;;3.80;99.90;;;;;;4984554;28;20243;-53
2021/04/02 06:30:50;;;;;;;10.03;4.77;;;3.90;99.90;;;;;;4984423;28;20208;-57
2021/04/02 06:33:16;;;;;;;9.80;4.83;;;3.90;99.90;;;;;;4984661;28;20201;-56
2021/04/02 06:35:43;;;;;;;11.80;5.53;;;4.00;99.90;;;;;;4968094;28;21424;-55
2021/04/02 06:38:10;;;;;;;5.33;4.60;;;4.00;99.90;;;;;;4984916;28;20205;-54
2021/04/02 06:40:37;;;;;;;13.77;5.17;;;4.10;99.90;;;;;;4982149;28;20216;-56
2021/04/02 06:43:05;;;;;;;11.43;4.50;;;4.10;99.90;;;;;;4985085;28;20204;-51
2021/04/02 06:45:32;;;;;;;9.33;5.07;;;4.20;99.90;;;;;;4980372;28;20923;-51
2021/04/02 06:48:10;;;;;;;11.37;4.37;;;4.30;99.90;;;;;;4984780;28;20209;-52
2021/04/02 06:50:37;;;;;;;13.40;4.07;;;4.40;99.90;;;;;;4964194;28;20430;-55
2021/04/02 06:53:05;;;;;;;7.20;3.60;;;4.40;99.90;;;;;;4985119;28;20260;-54
2021/04/02 06:55:32;;;;;;;7.10;4.00;;;4.50;99.90;;;;;;4981798;28;20223;-53
2021/04/02 06:58:06;;;;;;;6.50;3.37;;;4.50;99.90;;;;;;4985435;28;20325;-53
2021/04/02 07:00:35;;;;;;;9.10;3.30;;;4.60;99.90;;;;;;4981267;28;20244;-51
2021/04/02 07:03:02;;;;;;;10.27;3.13;;;4.60;99.90;;;;;;4985715;28;20651;-53
2021/04/02 07:05:30;;;;;;;10.07;3.43;;;4.60;99.90;;;;;;4982173;28;20284;-54
2021/04/02 07:08:00;;;;;;;9.60;2.97;;;4.70;99.90;;;;;;4969546;28;20213;-51
2021/04/02 07:10:27;;;;;;;4.77;2.53;;;4.70;99.90;;;;;;4980826;28;20291;-55
2021/04/02 07:12:54;;;;;;;6.03;2.47;;;4.80;99.90;;;;;;4985946;28;20216;-55
2021/04/02 07:15:21;;;;;;;11.50;2.00;;;4.90;99.90;;;;;;4983103;28;20292;-56
2021/04/02 07:17:48;;;;;;;6.30;2.37;;;4.90;99.90;;;;;;4984888;28;20215;-55
2021/04/02 07:20:15;;;;;;;6.23;1.90;;;5.00;99.90;;;;;;4983482;28;20225;-53
2021/04/02 07:22:42;;;;;;;6.67;1.60;;;5.10;99.90;;;;;;4966402;28;20204;-51
2021/04/02 07:25:10;;;;;;;7.30;1.80;;;5.10;99.90;;;;;;4984543;28;20226;-55
2021/04/02 07:27:37;;;;;;;8.37;1.73;;;5.20;99.90;;;;;;4981742;28;20205;-52
2021/04/02 07:30:06;;;;;;;7.37;1.90;;;5.30;99.90;;;;;;4983995;28;20217;-50
2021/04/02 07:32:35;;;;;;;6.90;1.90;;;5.30;99.90;;;;;;4979754;28;20334;-49
2021/04/02 07:35:01;;;;;;;8.70;2.03;;;5.40;99.90;;;;;;4999148;28;20229;-53
2021/04/02 07:37:36;;;;;;;21.67;3.00;;;5.50;99.90;;;;;;4963098;28;20205;-57
2021/04/02 07:40:03;;;;;;;6.20;1.80;;;5.50;99.90;;;;;;4977560;28;20227;-51
2021/04/02 07:42:31;;;;;;;10.30;2.20;;;5.50;99.90;;;;;;4979610;28;20191;-50
2021/04/02 07:44:59;;;;;;;9.60;2.37;;;5.60;99.90;;;;;;4998917;28;20240;-51
2021/04/02 07:47:25;;;;;;;7.33;1.57;;;5.60;99.90;;;;;;4980086;28;20205;-55
2021/04/02 07:49:58;;;;;;;11.70;2.07;;;5.70;99.90;;;;;;4983381;28;20237;-55
2021/04/02 07:52:33;;;;;;;8.33;2.17;;;5.70;99.90;;;;;;4967414;28;20201;-57
2021/04/02 07:55:08;;;;;;;15.10;2.47;;;5.80;99.90;;;;;;4983288;28;20303;-50
2021/04/02 07:57:50;;;;;;;7.83;2.20;;;5.80;99.90;;;;;;4980066;28;20201;-55
2021/04/02 08:00:17;;;;;;;10.50;2.10;;;5.90;99.90;;;;;;4981680;28;20217;-55
2021/04/02 08:02:43;;;;;;;9.37;1.93;;;5.90;99.90;;;;;;4981985;28;20201;-51
2021/04/02 08:05:15;;;;;;;7.50;2.10;;;6.00;99.90;;;;;;4983269;28;20197;-56
2021/04/02 08:07:42;;;;;;;7.00;2.60;;;6.00;99.90;;;;;;4981626;28;20931;-52
2021/04/02 08:10:10;;;;;;;6.87;2.60;;;6.20;99.90;;;;;;4967726;28;20227;-55
2021/04/02 08:12:37;;;;;;;10.07;2.37;;;6.20;99.90;;;;;;4980766;28;20197;-55
2021/04/02 08:15:06;;;;;;;9.27;2.23;;;6.30;99.90;;;;;;4984258;28;20229;-54
2021/04/02 08:17:33;;;;;;;7.73;2.03;;;6.20;99.90;;;;;;4980703;28;20215;-55
2021/04/02 08:20:03;;;;;;;10.67;2.30;;;6.20;99.90;;;;;;4984123;28;20231;-55
2021/04/02 08:22:30;;;;;;;7.97;2.20;;;6.30;99.90;;;;;;4982971;28;20197;-51
2021/04/02 08:25:01;;;;;;;10.60;2.57;;;6.30;99.90;;;;;;4967837;28;20212;-53
2021/04/02 08:27:31;;;;;;;9.43;2.43;;;6.40;99.90;;;;;;4975631;28;20206;-56
2021/04/02 08:30:02;;;;;;;10.43;2.20;;;6.50;99.90;;;;;;4983863;28;20615;-56
2021/04/02 08:32:32;;;;;;;13.00;2.20;;;6.60;99.90;;;;;;4980301;28;20870;-52
2021/04/02 08:34:59;;;;;;;9.03;2.77;;;6.70;99.90;;;;;;4984186;28;20607;-56
2021/04/02 08:37:28;;;;;;;17.13;2.70;;;6.70;99.90;;;;;;4980558;28;20197;-57
2021/04/02 08:39:56;;;;;;;17.27;3.20;;;6.70;99.90;;;;;;4967800;28;20399;-52
2021/04/02 08:42:23;;;;;;;7.70;1.80;;;6.60;99.90;;;;;;4981199;28;20209;-52
2021/04/02 08:44:49;;;;;;;10.67;2.30;;;6.60;99.90;;;;;;4983430;28;20583;-54
2021/04/02 08:47:17;;;;;;;9.83;1.93;;;6.60;99.90;;;;;;4982857;28;20560;-53
2021/04/02 08:49:47;;;;;;;9.53;1.93;;;6.60;99.90;;;;;;4983344;28;20224;-51
2021/04/02 08:52:15;;;;;;;14.00;3.00;;;6.70;99.90;;;;;;4985659;28;20215;-55
2021/04/02 08:54:43;;;;;;;9.13;2.13;;;6.70;99.90;;;;;;4984016;28;21024;-53
2021/04/02 08:57:12;;;;;;;10.57;3.07;;;6.70;99.90;;;;;;4969645;28;20228;-55
2021/04/02 08:59:39;;;;;;;5.53;2.00;;;6.80;99.90;;;;;;4998107;28;20267;-52
2021/04/02 09:02:06;;;;;;;8.57;2.17;;;6.70;99.90;;;;;;4986440;28;20201;-50
2021/04/02 09:04:32;;;;;;;11.07;2.80;;;6.70;99.90;;;;;;4982539;28;20205;-49
2021/04/02 09:06:59;;;;;;;10.70;2.77;;;6.80;99.90;;;;;;4986553;28;20214;-53
2021/04/02 09:09:29;;;;;;;10.17;1.93;;;6.80;99.90;;;;;;4982357;28;20649;-56
2021/04/02 09:11:56;;;;;;;8.03;2.40;;;6.80;99.90;;;;;;4969570;28;20273;-52
2021/04/02 09:14:26;;;;;;;12.03;2.17;;;6.90;99.90;;;;;;4983021;28;20205;-56
2021/04/02 09:16:56;;;;;;;9.60;2.47;;;6.90;99.90;;;;;;4986603;28;20206;-51
2021/04/02 09:19:23;;;;;;;9.13;1.90;;;6.80;99.90;;;;;;4983876;28;20229;-56
2021/04/02 09:21:52;;;;;;;9.67;1.90;;;6.90;99.90;;;;;;4986131;28;20202;-51
2021/04/02 09:24:18;;;;;;;12.43;2.87;;;6.90;99.90;;;;;;4985031;28;20201;-56
2021/04/02 09:26:45;;;;;;;10.20;1.97;;;6.90;99.90;;;;;;4969440;28;20206;-54
2021/04/02 09:29:12;;;;;;;12.17;2.80;;;7.00;99.90;;;;;;4986213;28;20213;-55
2021/04/02 09:31:42;;;;;;;10.50;2.63;;;7.10;99.90;;;;;;4984579;28;20199;-56
2021/04/02 09:34:10;;;;;;;9.47;2.47;;;7.20;99.90;;;;;;4986634;28;20300;-52
2021/04/02 09:36:40;;;;;;;7.03;2.67;;;7.30;99.90;;;;;;4982688;28;20207;-52
2021/04/02 09:39:09;;;;;;;8.23;2.30;;;7.40;99.90;;;;;;4985252;28;20221;-52
2021/04/02 09:41:37;;;;;;;7.47;1.93;;;7.30;99.90;;;;;;4982120;28;20396;-51
2021/04/02 09:44:08;;;;;;;11.23;2.77;;;7.40;99.90;;;;;;4969400;28;20223;-47
2021/04/02 09:46:37;;;;;;;8.97;2.40;;;7.40;99.90;;;;;;4981652;28;20284;-50
2021/04/02 09:49:07;;;;;;;11.20;2.60;;;7.50;99.90;;;;;;4986935;28;20291;-52
2021/04/02 09:51:35;;;;;;;7.47;2.50;;;7.40;99.90;;;;;;4982945;28;20268;-52
2021/04/02 09:54:02;;;;;;;11.30;3.07;;;7.40;99.90;;;;;;4986598;28;20651;-52
2021/04/02 09:56:28;;;;;;;12.30;3.23;;;7.50;99.90;;;;;;4982752;28;20216;-55
2021/04/02 09:58:54;;;;;;;7.67;2.63;;;7.50;99.90;;;;;;4969854;28;20221;-54
2021/04/02 10:01:21;;;;;;;5.90;2.87;;;7.50;99.90;;;;;;4981360;28;20284;-55
2021/04/02 10:03:47;;;;;;;10.30;3.63;;;7.40;99.90;;;;;;4983994;28;20197;-53
2021/04/02 10:06:14;;;;;;;19.90;3.60;;;7.50;99.90;;;;;;4985337;28;20255;-54
2021/04/02 10:08:41;;;;;;;12.77;3.40;;;7.50;99.90;;;;;;4983876;28;20221;-50
2021/04/02 10:11:07;;;;;;;8.23;2.70;;;7.40;99.90;;;;;;4986095;28;20205;-52
2021/04/02 10:13:33;;;;;;;10.67;2.73;;;7.40;99.90;;;;;;4966424;28;20217;-52
2021/04/02 10:15:59;;;;;;;9.40;2.50;;;7.30;99.90;;;;;;4985780;28;20217;-55
2021/04/02 10:18:27;;;;;;;9.63;2.57;;;7.30;99.90;;;;;;4982691;28;20609;-55
2021/04/02 10:20:54;;;;;;;5.90;2.43;;;7.30;99.90;;;;;;4985956;28;20666;-52
2021/04/02 10:23:21;;;;;;;10.07;2.70;;;7.30;99.90;;;;;;4983431;28;20589;-54
2021/04/02 10:25:47;;;;;;;5.80;2.23;;;7.30;99.90;;;;;;4984858;28;20196;-56
2021/04/02 10:28:13;;;;;;;11.23;2.90;;;7.20;99.90;;;;;;4985068;28;20937;-53
2021/04/02 10:30:40;;;;;;;7.00;2.53;;;7.20;99.90;;;;;;4967585;28;20220;-56
2021/04/02 10:33:06;;;;;;;8.60;2.50;;;7.10;99.90;;;;;;4985549;28;20205;-51
2021/04/02 10:35:35;;;;;;;9.63;3.20;;;7.20;99.90;;;;;;4981625;28;20308;-56
2021/04/02 10:38:01;;;;;;;10.47;2.10;;;7.20;99.90;;;;;;4982450;28;20655;-53
2021/04/02 10:40:28;;;;;;;12.43;2.30;;;7.20;99.90;;;;;;4978432;28;20275;-53
2021/04/02 10:42:54;;;;;;;10.60;2.50;;;7.20;99.90;;;;;;4985861;28;20201;-52
2021/04/02 10:45:21;;;;;;;12.90;2.60;;;7.20;99.90;;;;;;4971650;28;20208;-55
2021/04/02 10:47:47;;;;;;;8.17;2.90;;;7.20;99.90;;;;;;4971890;28;20203;-49
2021/04/02 10:50:14;;;;;;;8.93;3.20;;;7.20;99.90;;;;;;4983050;28;20303;-52
2021/04/02 10:52:40;;;;;;;6.20;1.80;;;7.30;99.90;;;;;;4982334;28;20945;-53
2021/04/02 10:55:07;;;;;;;7.27;2.30;;;7.30;99.90;;;;;;4985557;28;20311;-55
2021/04/02 10:57:34;;;;;;;7.00;2.70;;;7.40;99.90;;;;;;4981276;28;20213;-54
2021/04/02 11:00:01;;;;;;;6.83;2.70;;;7.50;99.90;;;;;;4985478;28;20284;-56
2021/04/02 11:02:27;;;;;;;5.60;2.30;;;7.50;99.90;;;;;;4965042;28;20210;-55
2021/04/02 11:04:53;;;;;;;8.57;2.37;;;7.50;99.90;;;;;;4985405;28;20197;-57
2021/04/02 11:07:19;;;;;;;6.57;2.23;;;7.40;99.90;;;;;;4982844;28;20259;-53
2021/04/02 11:09:45;;;;;;;10.47;2.83;;;7.50;99.90;;;;;;4983102;28;20228;-54
2021/04/02 11:12:11;;;;;;;8.27;2.97;;;7.50;99.90;;;;;;4983883;28;20193;-52
2021/04/02 11:14:38;;;;;;;6.73;3.13;;;7.50;99.90;;;;;;4982080;28;20300;-55
2021/04/02 11:17:05;;;;;;;7.70;2.67;;;7.50;99.90;;;;;;4969025;28;20205;-54
2021/04/02 11:19:31;;;;;;;12.20;2.80;;;7.50;99.90;;;;;;4980190;28;20299;-52
2021/04/02 11:21:57;;;;;;;6.60;2.03;;;7.50;99.90;;;;;;4984987;28;20205;-52
2021/04/02 11:24:23;;;;;;;8.63;2.20;;;7.50;99.90;;;;;;4981708;28;20197;-55
2021/04/02 11:26:50;;;;;;;8.33;1.83;;;7.50;99.90;;;;;;4984642;28;20343;-57
2021/04/02 11:29:16;;;;;;;6.80;1.90;;;7.50;99.90;;;;;;4983123;28;20275;-52
2021/04/02 11:31:43;;;;;;;12.17;2.23;;;7.60;99.90;;;;;;4983054;28;20193;-53
2021/04/02 11:34:09;;;;;;;10.80;2.60;;;7.60;99.90;;;;;;4968091;28;20210;-54
2021/04/02 11:36:35;;;;;;;10.03;2.43;;;7.60;99.90;;;;;;4981187;28;20793;-54
2021/04/02 11:39:02;;;;;;;6.63;1.83;;;7.70;99.90;;;;;;4984076;28;20221;-56
2021/04/02 11:41:28;;;;;;;9.50;1.70;;;7.70;99.90;;;;;;4980448;28;20190;-52
2021/04/02 11:43:54;;;;;;;3.40;1.90;;;7.70;99.90;;;;;;4984463;28;20669;-53
2021/04/02 11:46:20;;;;;;;5.70;1.90;;;7.70;99.90;;;;;;4982263;28;20201;-55
2021/04/02 11:48:47;;;;;;;9.63;1.87;;;7.70;99.90;;;;;;4966807;28;20229;-54
2021/04/02 11:51:13;;;;;;;6.17;2.00;;;7.70;99.90;;;;;;4976734;28;20212;-52
2021/04/02 11:53:39;;;;;;;4.47;2.23;;;7.70;99.90;;;;;;4974593;28;20920;-53
2021/04/02 11:56:06;;;;;;;11.53;2.20;;;7.70;99.90;;;;;;4983447;28;20255;-50
2021/04/02 11:58:32;;;;;;;12.70;2.13;;;7.60;99.90;;;;;;4980967;28;21015;-53
2021/04/02 12:00:58;;;;;;;9.17;1.87;;;7.60;99.90;;;;;;4984322;28;20691;-51
2021/04/02 12:03:25;;;;;;;8.23;1.90;;;7.60;99.90;;;;;;4967604;28;20207;-55
2021/04/02 12:05:52;;;;;;;5.00;1.70;;;7.60;99.90;;;;;;4981761;28;20205;-50
2021/04/02 12:08:18;;;;;;;3.97;1.70;;;7.60;99.90;;;;;;4981932;28;20204;-55
2021/04/02 12:10:44;;;;;;;7.40;1.80;;;7.60;99.90;;;;;;4981411;28;20888;-51
2021/04/02 12:13:11;;;;;;;4.30;1.80;;;7.60;99.90;;;;;;4984258;28;20614;-56
2021/04/02 12:15:37;;;;;;;4.40;1.80;;;7.60;99.90;;;;;;4981335;28;20213;-54
2021/04/02 12:18:04;;;;;;;8.07;1.80;;;7.60;99.90;;;;;;4984868;28;20577;-51
2021/04/02 12:20:31;;;;;;;7.83;1.70;;;7.70;99.90;;;;;;4963660;28;20217;-56
2021/04/02 12:22:58;;;;;;;8.77;1.63;;;7.70;99.90;;;;;;4983814;28;20285;-53
2021/04/02 12:25:24;;;;;;;5.83;1.70;;;7.70;99.90;;;;;;4984059;28;20324;-54
2021/04/02 12:27:51;;;;;;;7.07;2.20;;;7.70;99.90;;;;;;4986755;28;20201;-54
2021/04/02 12:30:18;;;;;;;9.73;2.10;;;7.70;99.90;;;;;;4984977;28;20225;-54
2021/04/02 12:32:44;;;;;;;5.93;1.80;;;7.80;99.90;;;;;;4984856;28;20939;-50
2021/04/02 12:35:12;;;;;;;7.93;1.60;;;7.80;99.90;;;;;;4970962;28;20628;-52
2021/04/02 12:37:39;;;;;;;9.67;1.93;;;7.80;99.90;;;;;;4983857;28;20227;-57
2021/04/02 12:40:11;;;;;;;5.27;1.60;;;7.80;99.90;;;;;;4987207;28;20213;-55
2021/04/02 12:42:37;;;;;;;6.40;1.60;;;7.90;99.90;;;;;;4984571;28;20860;-53
2021/04/02 12:45:05;;;;;;;5.10;1.87;;;7.80;99.90;;;;;;4988114;28;20231;-49
2021/04/02 12:47:32;;;;;;;6.80;1.93;;;7.70;99.90;;;;;;4983505;28;20809;-49
2021/04/02 12:49:58;;;;;;;5.23;1.83;;;7.70;99.90;;;;;;4986159;28;20306;-51
2021/04/02 12:52:24;;;;;;;4.17;1.73;;;7.80;99.90;;;;;;4966831;28;20548;-57